Saint-Pacome, Canada
Current Conditions -  °F | °C
As of 3:53 PM on Friday 19 Dec 2014 (Local Time) from KFVE Reporting Station
Clear Clear  
Wind Chill:   Ceiling: Unl
Heat Index: 21°   Visibility: 10mi
Dew Point: 15°   Wind: 14mph
Humidity: 78%   Direction: 330°NNW
Pressure: 29.89"   Gusts: NA
Location:  47.42°N, 69.95°W
Report Text: KFVE 192053Z AUTO 33012KT 10SM CLR M06/M09 A2989 RMK AO2 SLP138 T10611094 51020
Loading
Personal Weather Stations






























Interactive Weather Map New forecast layout! Learn more

10-Day Weather Forecast

Advertisements
Track Severe Weather on mobile